ENK weather

St Angelo Airport
Enniskillen, Northern Ireland, United Kingdom

Public forecast

Using degrees Celsius for public forecast. Weather courtesy of forecast.io.

Closest aviation weather report (METAR) to St Angelo Airport

Closest report is Sligo Airport, 33.9 nm (62.8 km) WSW. Retrieved 2020/01/25 18:00 UTC (2 hours ago):

EISG 251800Z 16007KT 140V200 9999 OVC014 07/07 Q1005

Closest aviation forecast (TAF) to St Angelo Airport

Closest forecast is Ireland West Knock Airport, 50.4 nm (93.4 km) SW. Retrieved 2020/01/25 18:09 UTC (1 hour ago):

TAF EIKN 251700Z 2518/2618 17013KT 9999 FEW003 BKN010 BECMG 2518/2520 18016G27KT TEMPO 2518/2520 4000 -DZ BKN003 BECMG 2520/2522 3000 -RADZ BKN003 TEMPO 2522/2601 0400 FG BKN001 BECMG 2601/2603 24013KT 9999 NSW FEW012 BKN020 TEMPO 2603/2607 5000 -SHRA BKN012 SCT018CB BECMG 2604/2606 23008KT BECMG 2614/2616 20008KT BECMG 2616/2618 17012KT